sensor_id;sensor_type;location;lat;lon;timestamp;temperature;humidity
52879;DHT22;38747;53.140;6.498;2023-06-04T00:01:40;11.80;99.90
52879;DHT22;38747;53.140;6.498;2023-06-04T00:04:05;11.70;99.90
52879;DHT22;38747;53.140;6.498;2023-06-04T00:06:31;11.80;99.90
52879;DHT22;38747;53.140;6.498;2023-06-04T00:08:57;11.70;99.90
52879;DHT22;38747;53.140;6.498;2023-06-04T00:11:22;11.70;99.90
52879;DHT22;38747;53.140;6.498;2023-06-04T00:13:48;11.60;99.90
52879;DHT22;38747;53.140;6.498;2023-06-04T00:16:14;11.60;99.90
52879;DHT22;38747;53.140;6.498;2023-06-04T00:18:40;11.60;99.90
52879;DHT22;38747;53.140;6.498;2023-06-04T00:21:05;11.60;99.90
52879;DHT22;38747;53.140;6.498;2023-06-04T00:23:31;11.60;99.90
52879;DHT22;38747;53.140;6.498;2023-06-04T00:25:56;11.60;99.90
52879;DHT22;38747;53.140;6.498;2023-06-04T00:28:22;11.60;99.90
52879;DHT22;38747;53.140;6.498;2023-06-04T00:30:48;11.60;99.90
52879;DHT22;38747;53.140;6.498;2023-06-04T00:33:13;11.60;99.90
52879;DHT22;38747;53.140;6.498;2023-06-04T00:35:39;11.50;99.90
52879;DHT22;38747;53.140;6.498;2023-06-04T00:38:04;11.50;99.90
52879;DHT22;38747;53.140;6.498;2023-06-04T00:40:30;11.50;99.90
52879;DHT22;38747;53.140;6.498;2023-06-04T00:42:56;11.50;99.90
52879;DHT22;38747;53.140;6.498;2023-06-04T00:45:21;11.50;99.90
52879;DHT22;38747;53.140;6.498;2023-06-04T00:47:51;11.50;99.90
52879;DHT22;38747;53.140;6.498;2023-06-04T00:50:17;11.50;99.90
52879;DHT22;38747;53.140;6.498;2023-06-04T00:52:43;11.40;99.90
52879;DHT22;38747;53.140;6.498;2023-06-04T00:55:09;11.40;99.90
52879;DHT22;38747;53.140;6.498;2023-06-04T00:57:35;11.40;99.90
52879;DHT22;38747;53.140;6.498;2023-06-04T01:00:01;11.40;99.90
52879;DHT22;38747;53.140;6.498;2023-06-04T01:02:27;11.30;99.90
52879;DHT22;38747;53.140;6.498;2023-06-04T01:05:25;11.40;99.90
52879;DHT22;38747;53.140;6.498;2023-06-04T01:07:55;11.30;99.90
52879;DHT22;38747;53.140;6.498;2023-06-04T01:10:21;11.30;99.90
52879;DHT22;38747;53.140;6.498;2023-06-04T01:12:47;11.30;99.90
52879;DHT22;38747;53.140;6.498;2023-06-04T01:15:13;11.30;99.90
52879;DHT22;38747;53.140;6.498;2023-06-04T01:17:43;11.30;99.90
52879;DHT22;38747;53.140;6.498;2023-06-04T01:23:14;11.20;99.90
52879;DHT22;38747;53.140;6.498;2023-06-04T01:25:41;11.20;99.90
52879;DHT22;38747;53.140;6.498;2023-06-04T01:28:11;11.20;99.90
52879;DHT22;38747;53.140;6.498;2023-06-04T01:30:39;11.20;99.90
52879;DHT22;38747;53.140;6.498;2023-06-04T01:33:09;11.10;99.90
52879;DHT22;38747;53.140;6.498;2023-06-04T01:35:35;11.10;99.90
52879;DHT22;38747;53.140;6.498;2023-06-04T01:38:00;11.10;99.90
52879;DHT22;38747;53.140;6.498;2023-06-04T01:40:26;11.10;99.90
52879;DHT22;38747;53.140;6.498;2023-06-04T01:42:52;11.00;99.90
52879;DHT22;38747;53.140;6.498;2023-06-04T01:45:20;11.00;99.90
52879;DHT22;38747;53.140;6.498;2023-06-04T01:47:45;11.00;99.90
52879;DHT22;38747;53.140;6.498;2023-06-04T01:50:11;11.00;99.90
52879;DHT22;38747;53.140;6.498;2023-06-04T01:52:37;11.00;99.90
52879;DHT22;38747;53.140;6.498;2023-06-04T01:55:04;11.00;99.90
52879;DHT22;38747;53.140;6.498;2023-06-04T01:57:30;11.00;99.90
52879;DHT22;38747;53.140;6.498;2023-06-04T01:59:56;11.00;99.90
52879;DHT22;38747;53.140;6.498;2023-06-04T02:02:22;11.00;99.90
52879;DHT22;38747;53.140;6.498;2023-06-04T02:04:48;11.00;99.90
52879;DHT22;38747;53.140;6.498;2023-06-04T02:07:18;10.90;99.90
52879;DHT22;38747;53.140;6.498;2023-06-04T02:09:46;10.80;99.90
52879;DHT22;38747;53.140;6.498;2023-06-04T02:12:12;10.60;99.90
52879;DHT22;38747;53.140;6.498;2023-06-04T02:14:37;10.60;99.90
52879;DHT22;38747;53.140;6.498;2023-06-04T02:17:04;10.40;99.90
52879;DHT22;38747;53.140;6.498;2023-06-04T02:19:30;10.30;99.90
52879;DHT22;38747;53.140;6.498;2023-06-04T02:21:59;10.20;99.90
52879;DHT22;38747;53.140;6.498;2023-06-04T02:24:25;10.20;99.90
52879;DHT22;38747;53.140;6.498;2023-06-04T02:26:50;10.20;99.90
52879;DHT22;38747;53.140;6.498;2023-06-04T02:29:16;10.20;99.90
52879;DHT22;38747;53.140;6.498;2023-06-04T02:31:42;10.20;99.90
52879;DHT22;38747;53.140;6.498;2023-06-04T02:34:07;10.30;99.90
52879;DHT22;38747;53.140;6.498;2023-06-04T02:36:34;10.30;99.90
52879;DHT22;38747;53.140;6.498;2023-06-04T02:38:59;10.20;99.90
52879;DHT22;38747;53.140;6.498;2023-06-04T02:41:26;10.20;99.90
52879;DHT22;38747;53.140;6.498;2023-06-04T02:43:52;10.20;99.90
52879;DHT22;38747;53.140;6.498;2023-06-04T02:46:17;10.20;99.90
52879;DHT22;38747;53.140;6.498;2023-06-04T02:48:43;10.20;99.90
52879;DHT22;38747;53.140;6.498;2023-06-04T02:51:08;10.10;99.90
52879;DHT22;38747;53.140;6.498;2023-06-04T02:53:36;10.00;99.90
52879;DHT22;38747;53.140;6.498;2023-06-04T02:56:02;9.90;99.90
52879;DHT22;38747;53.140;6.498;2023-06-04T02:58:27;9.70;99.90
52879;DHT22;38747;53.140;6.498;2023-06-04T03:00:54;9.60;99.90
52879;DHT22;38747;53.140;6.498;2023-06-04T03:03:22;9.50;99.90
52879;DHT22;38747;53.140;6.498;2023-06-04T03:05:47;9.50;99.90
52879;DHT22;38747;53.140;6.498;2023-06-04T03:08:13;9.40;99.90
52879;DHT22;38747;53.140;6.498;2023-06-04T03:10:39;9.30;99.90
52879;DHT22;38747;53.140;6.498;2023-06-04T03:13:05;9.20;99.90
52879;DHT22;38747;53.140;6.498;2023-06-04T03:15:30;9.20;99.90
52879;DHT22;38747;53.140;6.498;2023-06-04T03:17:56;9.10;99.90
52879;DHT22;38747;53.140;6.498;2023-06-04T03:20:22;9.10;99.90
52879;DHT22;38747;53.140;6.498;2023-06-04T03:22:51;9.00;99.90
52879;DHT22;38747;53.140;6.498;2023-06-04T03:25:17;9.10;99.90
52879;DHT22;38747;53.140;6.498;2023-06-04T03:27:42;9.10;99.90
52879;DHT22;38747;53.140;6.498;2023-06-04T03:30:08;9.10;99.90
52879;DHT22;38747;53.140;6.498;2023-06-04T03:32:35;9.10;99.90
52879;DHT22;38747;53.140;6.498;2023-06-04T03:35:01;9.10;99.90
52879;DHT22;38747;53.140;6.498;2023-06-04T03:37:27;9.10;99.90
52879;DHT22;38747;53.140;6.498;2023-06-04T03:39:53;9.10;99.90
52879;DHT22;38747;53.140;6.498;2023-06-04T03:42:18;9.10;99.90
52879;DHT22;38747;53.140;6.498;2023-06-04T03:44:44;9.10;99.90
52879;DHT22;38747;53.140;6.498;2023-06-04T03:47:11;9.00;99.90
52879;DHT22;38747;53.140;6.498;2023-06-04T03:49:37;9.10;99.90
52879;DHT22;38747;53.140;6.498;2023-06-04T03:52:02;9.10;99.90
52879;DHT22;38747;53.140;6.498;2023-06-04T03:54:28;9.10;99.90
52879;DHT22;38747;53.140;6.498;2023-06-04T03:56:54;9.10;99.90
52879;DHT22;38747;53.140;6.498;2023-06-04T03:59:19;9.20;99.90
52879;DHT22;38747;53.140;6.498;2023-06-04T04:01:45;9.20;99.90
52879;DHT22;38747;53.140;6.498;2023-06-04T04:04:10;9.30;99.90
52879;DHT22;38747;53.140;6.498;2023-06-04T04:06:36;9.70;99.90
52879;DHT22;38747;53.140;6.498;2023-06-04T04:09:02;9.90;99.90
52879;DHT22;38747;53.140;6.498;2023-06-04T04:11:29;10.20;99.90
52879;DHT22;38747;53.140;6.498;2023-06-04T04:13:56;10.30;99.90
52879;DHT22;38747;53.140;6.498;2023-06-04T04:16:21;10.30;99.90
52879;DHT22;38747;53.140;6.498;2023-06-04T04:18:47;10.10;99.90
52879;DHT22;38747;53.140;6.498;2023-06-04T04:21:13;10.00;99.90
52879;DHT22;38747;53.140;6.498;2023-06-04T04:23:39;9.90;99.90
52879;DHT22;38747;53.140;6.498;2023-06-04T04:26:08;9.80;99.90
52879;DHT22;38747;53.140;6.498;2023-06-04T04:28:35;9.70;99.90
52879;DHT22;38747;53.140;6.498;2023-06-04T04:31:01;10.00;99.90
52879;DHT22;38747;53.140;6.498;2023-06-04T04:33:28;10.00;99.90
52879;DHT22;38747;53.140;6.498;2023-06-04T04:35:58;10.10;99.90
52879;DHT22;38747;53.140;6.498;2023-06-04T04:38:25;10.10;99.90
52879;DHT22;38747;53.140;6.498;2023-06-04T04:40:51;10.00;99.90
52879;DHT22;38747;53.140;6.498;2023-06-04T04:43:38;10.00;99.90
52879;DHT22;38747;53.140;6.498;2023-06-04T04:46:06;10.00;99.90
52879;DHT22;38747;53.140;6.498;2023-06-04T04:48:33;10.00;99.90
52879;DHT22;38747;53.140;6.498;2023-06-04T04:50:58;10.00;99.90
52879;DHT22;38747;53.140;6.498;2023-06-04T04:53:25;10.10;99.90
52879;DHT22;38747;53.140;6.498;2023-06-04T04:55:51;10.30;99.90
52879;DHT22;38747;53.140;6.498;2023-06-04T04:58:17;10.50;99.90
52879;DHT22;38747;53.140;6.498;2023-06-04T05:00:43;10.60;99.90
52879;DHT22;38747;53.140;6.498;2023-06-04T05:03:09;10.70;99.90
52879;DHT22;38747;53.140;6.498;2023-06-04T05:05:35;10.70;99.90
52879;DHT22;38747;53.140;6.498;2023-06-04T05:08:00;10.80;99.90
52879;DHT22;38747;53.140;6.498;2023-06-04T05:10:26;10.80;99.90
52879;DHT22;38747;53.140;6.498;2023-06-04T05:12:56;10.90;99.90
52879;DHT22;38747;53.140;6.498;2023-06-04T05:15:22;11.10;99.90
52879;DHT22;38747;53.140;6.498;2023-06-04T05:17:49;11.30;99.90
52879;DHT22;38747;53.140;6.498;2023-06-04T05:20:18;11.50;99.90
52879;DHT22;38747;53.140;6.498;2023-06-04T05:22:44;11.70;99.90
52879;DHT22;38747;53.140;6.498;2023-06-04T05:25:11;11.80;99.90
52879;DHT22;38747;53.140;6.498;2023-06-04T05:27:37;11.80;99.90
52879;DHT22;38747;53.140;6.498;2023-06-04T05:30:03;11.90;99.90
52879;DHT22;38747;53.140;6.498;2023-06-04T05:32:29;12.00;99.90
52879;DHT22;38747;53.140;6.498;2023-06-04T05:34:56;12.20;99.90
52879;DHT22;38747;53.140;6.498;2023-06-04T05:37:25;12.30;99.90
52879;DHT22;38747;53.140;6.498;2023-06-04T05:39:55;12.30;99.90
52879;DHT22;38747;53.140;6.498;2023-06-04T05:42:22;12.30;99.90
52879;DHT22;38747;53.140;6.498;2023-06-04T05:44:47;12.30;99.90
52879;DHT22;38747;53.140;6.498;2023-06-04T05:47:15;12.30;99.90
52879;DHT22;38747;53.140;6.498;2023-06-04T05:49:40;12.30;99.90
52879;DHT22;38747;53.140;6.498;2023-06-04T05:52:06;12.40;99.90
52879;DHT22;38747;53.140;6.498;2023-06-04T05:54:31;12.40;99.90
52879;DHT22;38747;53.140;6.498;2023-06-04T05:56:58;12.40;99.90
52879;DHT22;38747;53.140;6.498;2023-06-04T05:59:24;12.40;99.90
52879;DHT22;38747;53.140;6.498;2023-06-04T06:01:50;12.50;99.90
52879;DHT22;38747;53.140;6.498;2023-06-04T06:04:16;12.60;99.90
52879;DHT22;38747;53.140;6.498;2023-06-04T06:06:44;12.60;99.90
52879;DHT22;38747;53.140;6.498;2023-06-04T06:09:14;12.60;99.90
52879;DHT22;38747;53.140;6.498;2023-06-04T06:11:40;12.60;99.90
52879;DHT22;38747;53.140;6.498;2023-06-04T06:14:06;12.70;99.90
52879;DHT22;38747;53.140;6.498;2023-06-04T06:16:32;12.70;99.90
52879;DHT22;38747;53.140;6.498;2023-06-04T06:19:01;12.70;99.90
52879;DHT22;38747;53.140;6.498;2023-06-04T06:21:27;12.80;99.90
52879;DHT22;38747;53.140;6.498;2023-06-04T06:23:54;12.80;99.90
52879;DHT22;38747;53.140;6.498;2023-06-04T06:26:19;12.80;99.90
52879;DHT22;38747;53.140;6.498;2023-06-04T06:28:45;12.90;99.90
52879;DHT22;38747;53.140;6.498;2023-06-04T06:31:11;13.00;99.90
52879;DHT22;38747;53.140;6.498;2023-06-04T06:33:36;13.00;99.90
52879;DHT22;38747;53.140;6.498;2023-06-04T06:36:07;13.00;99.90
52879;DHT22;38747;53.140;6.498;2023-06-04T06:38:33;13.00;99.90
52879;DHT22;38747;53.140;6.498;2023-06-04T06:40:59;13.00;99.90
52879;DHT22;38747;53.140;6.498;2023-06-04T06:43:24;13.10;99.90
52879;DHT22;38747;53.140;6.498;2023-06-04T06:45:50;13.20;99.90
52879;DHT22;38747;53.140;6.498;2023-06-04T06:48:16;13.20;99.90
52879;DHT22;38747;53.140;6.498;2023-06-04T06:50:42;13.30;99.90
52879;DHT22;38747;53.140;6.498;2023-06-04T06:53:07;13.30;99.90
52879;DHT22;38747;53.140;6.498;2023-06-04T06:55:33;13.30;99.90
52879;DHT22;38747;53.140;6.498;2023-06-04T06:57:59;13.40;99.90
52879;DHT22;38747;53.140;6.498;2023-06-04T07:00:26;13.50;99.90
52879;DHT22;38747;53.140;6.498;2023-06-04T07:02:52;13.50;99.90
52879;DHT22;38747;53.140;6.498;2023-06-04T07:05:17;13.60;99.90
52879;DHT22;38747;53.140;6.498;2023-06-04T07:07:43;13.60;99.90
52879;DHT22;38747;53.140;6.498;2023-06-04T07:10:09;13.60;99.90
52879;DHT22;38747;53.140;6.498;2023-06-04T07:12:35;13.70;99.90
52879;DHT22;38747;53.140;6.498;2023-06-04T07:15:00;13.70;99.90
52879;DHT22;38747;53.140;6.498;2023-06-04T07:17:26;13.70;99.90
52879;DHT22;38747;53.140;6.498;2023-06-04T07:19:52;13.90;99.90
52879;DHT22;38747;53.140;6.498;2023-06-04T07:22:17;14.30;99.90
52879;DHT22;38747;53.140;6.498;2023-06-04T07:24:43;14.70;99.90
52879;DHT22;38747;53.140;6.498;2023-06-04T07:27:15;14.60;99.90
52879;DHT22;38747;53.140;6.498;2023-06-04T07:29:43;14.50;99.90
52879;DHT22;38747;53.140;6.498;2023-06-04T07:32:09;14.40;99.90
52879;DHT22;38747;53.140;6.498;2023-06-04T07:34:35;14.40;99.90
52879;DHT22;38747;53.140;6.498;2023-06-04T07:37:02;14.30;99.90
52879;DHT22;38747;53.140;6.498;2023-06-04T07:39:28;14.40;99.90
52879;DHT22;38747;53.140;6.498;2023-06-04T07:41:54;14.40;99.90
52879;DHT22;38747;53.140;6.498;2023-06-04T07:44:19;14.40;99.90
52879;DHT22;38747;53.140;6.498;2023-06-04T07:46:45;14.40;99.90
52879;DHT22;38747;53.140;6.498;2023-06-04T07:49:10;14.40;99.90
52879;DHT22;38747;53.140;6.498;2023-06-04T07:51:36;14.40;99.90
52879;DHT22;38747;53.140;6.498;2023-06-04T07:54:02;14.40;99.90
52879;DHT22;38747;53.140;6.498;2023-06-04T07:56:28;14.50;99.90
52879;DHT22;38747;53.140;6.498;2023-06-04T07:58:54;14.60;99.90
52879;DHT22;38747;53.140;6.498;2023-06-04T08:01:20;14.70;99.90
52879;DHT22;38747;53.140;6.498;2023-06-04T08:03:47;14.70;99.90
52879;DHT22;38747;53.140;6.498;2023-06-04T08:06:12;14.80;99.90
52879;DHT22;38747;53.140;6.498;2023-06-04T08:08:42;14.80;99.90
52879;DHT22;38747;53.140;6.498;2023-06-04T08:11:11;14.90;99.90
52879;DHT22;38747;53.140;6.498;2023-06-04T08:13:36;15.00;99.90
52879;DHT22;38747;53.140;6.498;2023-06-04T08:16:02;15.00;99.90
52879;DHT22;38747;53.140;6.498;2023-06-04T08:18:28;15.10;99.90
52879;DHT22;38747;53.140;6.498;2023-06-04T08:20:54;15.10;99.90
52879;DHT22;38747;53.140;6.498;2023-06-04T08:23:20;15.20;99.90
52879;DHT22;38747;53.140;6.498;2023-06-04T08:25:46;15.20;99.90
52879;DHT22;38747;53.140;6.498;2023-06-04T08:28:13;15.30;99.90
52879;DHT22;38747;53.140;6.498;2023-06-04T08:30:39;15.30;99.90
52879;DHT22;38747;53.140;6.498;2023-06-04T08:33:05;15.30;99.90
52879;DHT22;38747;53.140;6.498;2023-06-04T08:35:30;15.40;99.90
52879;DHT22;38747;53.140;6.498;2023-06-04T08:37:56;15.40;99.90
52879;DHT22;38747;53.140;6.498;2023-06-04T08:40:21;15.50;99.90
52879;DHT22;38747;53.140;6.498;2023-06-04T08:42:48;15.50;99.90
52879;DHT22;38747;53.140;6.498;2023-06-04T08:45:14;15.70;99.90
52879;DHT22;38747;53.140;6.498;2023-06-04T08:47:44;15.90;99.90
52879;DHT22;38747;53.140;6.498;2023-06-04T08:50:12;16.00;99.90
52879;DHT22;38747;53.140;6.498;2023-06-04T08:52:38;16.10;99.90
52879;DHT22;38747;53.140;6.498;2023-06-04T08:55:05;16.20;99.90
52879;DHT22;38747;53.140;6.498;2023-06-04T08:57:31;16.30;99.90
52879;DHT22;38747;53.140;6.498;2023-06-04T08:59:57;16.40;99.90
52879;DHT22;38747;53.140;6.498;2023-06-04T09:02:23;16.60;99.90
52879;DHT22;38747;53.140;6.498;2023-06-04T09:04:51;16.60;99.90
52879;DHT22;38747;53.140;6.498;2023-06-04T09:07:17;16.70;99.90
52879;DHT22;38747;53.140;6.498;2023-06-04T09:09:46;16.80;99.90
52879;DHT22;38747;53.140;6.498;2023-06-04T09:12:23;16.90;99.90
52879;DHT22;38747;53.140;6.498;2023-06-04T09:14:49;17.00;99.90
52879;DHT22;38747;53.140;6.498;2023-06-04T09:17:24;17.20;99.90
52879;DHT22;38747;53.140;6.498;2023-06-04T09:19:51;17.30;99.90
52879;DHT22;38747;53.140;6.498;2023-06-04T09:22:17;17.50;99.90
52879;DHT22;38747;53.140;6.498;2023-06-04T09:24:44;17.40;99.90
52879;DHT22;38747;53.140;6.498;2023-06-04T09:27:17;17.50;99.90
52879;DHT22;38747;53.140;6.498;2023-06-04T09:29:50;17.60;99.90
52879;DHT22;38747;53.140;6.498;2023-06-04T09:32:29;17.70;99.90
52879;DHT22;38747;53.140;6.498;2023-06-04T09:35:08;17.70;99.90
52879;DHT22;38747;53.140;6.498;2023-06-04T09:37:37;17.70;99.90
52879;DHT22;38747;53.140;6.498;2023-06-04T09:40:03;17.80;99.90
52879;DHT22;38747;53.140;6.498;2023-06-04T09:42:42;17.90;99.90
52879;DHT22;38747;53.140;6.498;2023-06-04T09:45:09;17.90;99.90
52879;DHT22;38747;53.140;6.498;2023-06-04T09:47:44;18.10;99.90
52879;DHT22;38747;53.140;6.498;2023-06-04T09:50:13;18.30;99.90
52879;DHT22;38747;53.140;6.498;2023-06-04T09:52:39;18.40;99.90
52879;DHT22;38747;53.140;6.498;2023-06-04T09:55:18;18.50;99.90
52879;DHT22;38747;53.140;6.498;2023-06-04T09:57:50;18.60;99.90
52879;DHT22;38747;53.140;6.498;2023-06-04T10:00:20;18.70;99.90
52879;DHT22;38747;53.140;6.498;2023-06-04T10:02:48;18.80;99.90
52879;DHT22;38747;53.140;6.498;2023-06-04T10:05:14;18.70;99.90
52879;DHT22;38747;53.140;6.498;2023-06-04T10:07:43;18.80;99.90
52879;DHT22;38747;53.140;6.498;2023-06-04T10:10:21;18.80;99.90
52879;DHT22;38747;53.140;6.498;2023-06-04T10:13:05;18.80;99.90
52879;DHT22;38747;53.140;6.498;2023-06-04T10:15:32;18.70;99.90
52879;DHT22;38747;53.140;6.498;2023-06-04T10:18:01;18.80;99.90
52879;DHT22;38747;53.140;6.498;2023-06-04T10:20:28;18.80;99.90
52879;DHT22;38747;53.140;6.498;2023-06-04T10:22:54;19.00;99.90
52879;DHT22;38747;53.140;6.498;2023-06-04T10:25:20;19.10;99.90
52879;DHT22;38747;53.140;6.498;2023-06-04T10:27:46;19.20;99.90
52879;DHT22;38747;53.140;6.498;2023-06-04T10:30:12;19.30;99.90
52879;DHT22;38747;53.140;6.498;2023-06-04T10:32:38;19.40;99.90
52879;DHT22;38747;53.140;6.498;2023-06-04T10:35:05;19.40;99.90
52879;DHT22;38747;53.140;6.498;2023-06-04T10:37:33;19.40;99.90
52879;DHT22;38747;53.140;6.498;2023-06-04T10:39:59;19.40;99.90
52879;DHT22;38747;53.140;6.498;2023-06-04T10:42:25;19.40;99.90
52879;DHT22;38747;53.140;6.498;2023-06-04T10:44:52;19.50;99.90
52879;DHT22;38747;53.140;6.498;2023-06-04T10:47:22;19.50;99.90
52879;DHT22;38747;53.140;6.498;2023-06-04T10:49:53;19.40;99.90
52879;DHT22;38747;53.140;6.498;2023-06-04T10:52:19;19.40;99.90
52879;DHT22;38747;53.140;6.498;2023-06-04T10:54:46;19.40;99.90
52879;DHT22;38747;53.140;6.498;2023-06-04T10:57:16;19.50;99.90
52879;DHT22;38747;53.140;6.498;2023-06-04T10:59:54;19.60;99.90
52879;DHT22;38747;53.140;6.498;2023-06-04T11:02:20;19.50;99.90
52879;DHT22;38747;53.140;6.498;2023-06-04T11:04:47;19.50;99.90
52879;DHT22;38747;53.140;6.498;2023-06-04T11:07:23;19.70;99.90
52879;DHT22;38747;53.140;6.498;2023-06-04T11:09:50;19.90;99.90
52879;DHT22;38747;53.140;6.498;2023-06-04T11:12:15;20.00;99.90
52879;DHT22;38747;53.140;6.498;2023-06-04T11:14:53;20.10;99.90
52879;DHT22;38747;53.140;6.498;2023-06-04T11:17:19;20.20;99.90
52879;DHT22;38747;53.140;6.498;2023-06-04T11:19:45;20.30;99.90
52879;DHT22;38747;53.140;6.498;2023-06-04T11:22:11;20.30;99.90
52879;DHT22;38747;53.140;6.498;2023-06-04T11:24:39;20.30;99.90
52879;DHT22;38747;53.140;6.498;2023-06-04T11:27:05;20.40;99.90
52879;DHT22;38747;53.140;6.498;2023-06-04T11:29:32;20.30;99.90
52879;DHT22;38747;53.140;6.498;2023-06-04T11:31:58;20.40;99.90
52879;DHT22;38747;53.140;6.498;2023-06-04T11:34:24;20.50;99.90
52879;DHT22;38747;53.140;6.498;2023-06-04T11:36:51;20.50;99.90
52879;DHT22;38747;53.140;6.498;2023-06-04T11:39:18;20.40;99.90
52879;DHT22;38747;53.140;6.498;2023-06-04T11:41:45;20.50;99.90
52879;DHT22;38747;53.140;6.498;2023-06-04T11:44:11;20.40;99.90
52879;DHT22;38747;53.140;6.498;2023-06-04T11:46:41;20.40;99.90
52879;DHT22;38747;53.140;6.498;2023-06-04T11:49:12;20.30;99.90
52879;DHT22;38747;53.140;6.498;2023-06-04T11:51:48;20.10;99.90
52879;DHT22;38747;53.140;6.498;2023-06-04T11:54:19;20.10;99.90
52879;DHT22;38747;53.140;6.498;2023-06-04T11:56:46;20.10;99.90
52879;DHT22;38747;53.140;6.498;2023-06-04T11:59:14;20.20;99.90
52879;DHT22;38747;53.140;6.498;2023-06-04T12:01:45;20.20;99.90
52879;DHT22;38747;53.140;6.498;2023-06-04T12:04:14;20.20;99.90
52879;DHT22;38747;53.140;6.498;2023-06-04T12:06:53;20.30;99.90
52879;DHT22;38747;53.140;6.498;2023-06-04T12:09:21;20.50;99.90
52879;DHT22;38747;53.140;6.498;2023-06-04T12:11:47;20.60;99.90
52879;DHT22;38747;53.140;6.498;2023-06-04T12:14:16;20.80;99.90
52879;DHT22;38747;53.140;6.498;2023-06-04T12:19:24;20.90;99.90
52879;DHT22;38747;53.140;6.498;2023-06-04T12:22:01;20.80;99.90
52879;DHT22;38747;53.140;6.498;2023-06-04T12:24:27;20.70;99.90
52879;DHT22;38747;53.140;6.498;2023-06-04T12:27:05;20.60;99.90
52879;DHT22;38747;53.140;6.498;2023-06-04T12:29:32;20.50;99.90
52879;DHT22;38747;53.140;6.498;2023-06-04T12:34:28;20.50;99.90
52879;DHT22;38747;53.140;6.498;2023-06-04T12:36:54;20.50;99.90
52879;DHT22;38747;53.140;6.498;2023-06-04T12:39:19;20.60;99.90
52879;DHT22;38747;53.140;6.498;2023-06-04T12:41:46;20.70;99.90
52879;DHT22;38747;53.140;6.498;2023-06-04T12:44:12;20.80;99.90
52879;DHT22;38747;53.140;6.498;2023-06-04T12:46:37;20.70;99.90
52879;DHT22;38747;53.140;6.498;2023-06-04T12:49:03;20.60;99.90
52879;DHT22;38747;53.140;6.498;2023-06-04T12:51:28;20.50;99.90
52879;DHT22;38747;53.140;6.498;2023-06-04T12:53:54;20.40;99.90
52879;DHT22;38747;53.140;6.498;2023-06-04T12:56:20;20.40;99.90
52879;DHT22;38747;53.140;6.498;2023-06-04T12:58:45;20.50;99.90
52879;DHT22;38747;53.140;6.498;2023-06-04T13:01:11;20.60;99.90
52879;DHT22;38747;53.140;6.498;2023-06-04T13:03:40;20.60;99.90
52879;DHT22;38747;53.140;6.498;2023-06-04T13:06:06;20.60;99.90
52879;DHT22;38747;53.140;6.498;2023-06-04T13:08:32;20.50;99.90
52879;DHT22;38747;53.140;6.498;2023-06-04T13:10:58;20.40;99.90
52879;DHT22;38747;53.140;6.498;2023-06-04T13:13:24;20.30;99.90
52879;DHT22;38747;53.140;6.498;2023-06-04T13:15:50;20.10;99.90
52879;DHT22;38747;53.140;6.498;2023-06-04T13:18:15;20.00;99.90
52879;DHT22;38747;53.140;6.498;2023-06-04T13:20:41;19.90;99.90
52879;DHT22;38747;53.140;6.498;2023-06-04T13:23:07;19.90;99.90
52879;DHT22;38747;53.140;6.498;2023-06-04T13:25:33;19.80;99.90
52879;DHT22;38747;53.140;6.498;2023-06-04T13:28:00;19.80;99.90
52879;DHT22;38747;53.140;6.498;2023-06-04T13:30:26;19.80;99.90
52879;DHT22;38747;53.140;6.498;2023-06-04T13:32:52;19.90;99.90
52879;DHT22;38747;53.140;6.498;2023-06-04T13:35:18;19.80;99.90
52879;DHT22;38747;53.140;6.498;2023-06-04T13:37:44;19.80;99.90
52879;DHT22;38747;53.140;6.498;2023-06-04T13:40:10;19.80;99.90
52879;DHT22;38747;53.140;6.498;2023-06-04T13:42:36;19.80;99.90
52879;DHT22;38747;53.140;6.498;2023-06-04T13:45:01;19.50;99.90
52879;DHT22;38747;53.140;6.498;2023-06-04T13:47:27;19.50;99.90
52879;DHT22;38747;53.140;6.498;2023-06-04T13:49:53;19.60;99.90
52879;DHT22;38747;53.140;6.498;2023-06-04T13:52:18;19.50;99.90
52879;DHT22;38747;53.140;6.498;2023-06-04T13:54:44;19.60;99.90
52879;DHT22;38747;53.140;6.498;2023-06-04T13:57:10;19.70;99.90
52879;DHT22;38747;53.140;6.498;2023-06-04T13:59:38;19.80;99.90
52879;DHT22;38747;53.140;6.498;2023-06-04T14:02:04;19.60;99.90
52879;DHT22;38747;53.140;6.498;2023-06-04T14:04:31;19.60;99.90
52879;DHT22;38747;53.140;6.498;2023-06-04T14:06:57;19.50;99.90
52879;DHT22;38747;53.140;6.498;2023-06-04T14:09:23;19.40;99.90
52879;DHT22;38747;53.140;6.498;2023-06-04T14:11:48;19.40;99.90
52879;DHT22;38747;53.140;6.498;2023-06-04T14:14:19;19.30;99.90
52879;DHT22;38747;53.140;6.498;2023-06-04T14:16:45;19.30;99.90
52879;DHT22;38747;53.140;6.498;2023-06-04T14:19:11;19.20;99.90
52879;DHT22;38747;53.140;6.498;2023-06-04T14:21:37;19.10;99.90
52879;DHT22;38747;53.140;6.498;2023-06-04T14:24:02;19.10;99.90
52879;DHT22;38747;53.140;6.498;2023-06-04T14:26:28;19.00;99.90
52879;DHT22;38747;53.140;6.498;2023-06-04T14:28:55;19.00;99.90
52879;DHT22;38747;53.140;6.498;2023-06-04T14:31:21;18.90;99.90
52879;DHT22;38747;53.140;6.498;2023-06-04T14:33:46;18.90;99.90
52879;DHT22;38747;53.140;6.498;2023-06-04T14:36:12;18.80;99.90
52879;DHT22;38747;53.140;6.498;2023-06-04T14:38:38;18.90;99.90
52879;DHT22;38747;53.140;6.498;2023-06-04T14:41:04;18.80;99.90
52879;DHT22;38747;53.140;6.498;2023-06-04T14:43:29;18.70;99.90
52879;DHT22;38747;53.140;6.498;2023-06-04T14:45:55;18.80;99.90
52879;DHT22;38747;53.140;6.498;2023-06-04T14:48:21;18.70;99.90
52879;DHT22;38747;53.140;6.498;2023-06-04T14:50:46;18.60;99.90
52879;DHT22;38747;53.140;6.498;2023-06-04T14:53:12;18.40;99.90
52879;DHT22;38747;53.140;6.498;2023-06-04T14:55:38;18.30;99.90
52879;DHT22;38747;53.140;6.498;2023-06-04T14:58:03;18.30;99.90
52879;DHT22;38747;53.140;6.498;2023-06-04T15:00:30;18.30;99.90
52879;DHT22;38747;53.140;6.498;2023-06-04T15:02:56;18.10;99.90
52879;DHT22;38747;53.140;6.498;2023-06-04T15:05:22;18.00;99.90
52879;DHT22;38747;53.140;6.498;2023-06-04T15:07:48;17.90;99.90
52879;DHT22;38747;53.140;6.498;2023-06-04T15:10:13;17.80;99.90
52879;DHT22;38747;53.140;6.498;2023-06-04T15:12:39;17.70;99.90
52879;DHT22;38747;53.140;6.498;2023-06-04T15:15:06;17.60;99.90
52879;DHT22;38747;53.140;6.498;2023-06-04T15:17:32;17.60;99.90
52879;DHT22;38747;53.140;6.498;2023-06-04T15:19:58;17.50;99.90
52879;DHT22;38747;53.140;6.498;2023-06-04T15:22:24;17.60;99.90
52879;DHT22;38747;53.140;6.498;2023-06-04T15:24:50;17.50;99.90
52879;DHT22;38747;53.140;6.498;2023-06-04T15:27:16;17.60;99.90
52879;DHT22;38747;53.140;6.498;2023-06-04T15:29:42;17.50;99.90
52879;DHT22;38747;53.140;6.498;2023-06-04T15:32:08;17.60;99.90
52879;DHT22;38747;53.140;6.498;2023-06-04T15:34:34;17.50;99.90
52879;DHT22;38747;53.140;6.498;2023-06-04T15:36:59;17.40;99.90
52879;DHT22;38747;53.140;6.498;2023-06-04T15:39:25;17.30;99.90